createdAt,value
2019-04-20T00:00:46.848Z,15.00
2019-04-20T00:03:13.836Z,15.00
2019-04-20T00:05:43.414Z,14.90
2019-04-20T00:08:16.750Z,14.90
2019-04-20T00:10:51.364Z,14.80
2019-04-20T00:13:24.056Z,14.70
2019-04-20T00:15:43.059Z,14.70
2019-04-20T00:18:12.180Z,14.60
2019-04-20T00:20:43.853Z,14.60
2019-04-20T00:23:22.708Z,14.50
2019-04-20T00:25:59.129Z,14.50
2019-04-20T00:28:37.554Z,14.40
2019-04-20T00:31:05.837Z,14.40
2019-04-20T00:33:31.119Z,14.40
2019-04-20T00:35:50.393Z,14.30
2019-04-20T00:38:21.048Z,14.30
2019-04-20T00:40:56.143Z,14.20
2019-04-20T00:43:24.525Z,14.20
2019-04-20T00:45:53.709Z,14.20
2019-04-20T00:48:31.498Z,14.10
2019-04-20T00:51:06.827Z,14.10
2019-04-20T00:53:26.202Z,14.10
2019-04-20T00:55:50.792Z,14.00
2019-04-20T00:58:25.931Z,14.00
2019-04-20T01:01:13.022Z,14.00
2019-04-20T01:03:33.875Z,13.90
2019-04-20T01:06:19.248Z,13.90
2019-04-20T01:08:29.630Z,13.90
2019-04-20T01:10:59.878Z,13.90
2019-04-20T01:13:30.141Z,13.80
2019-04-20T01:16:06.235Z,13.80
2019-04-20T01:18:28.742Z,13.80
2019-04-20T01:21:04.968Z,13.70
2019-04-20T01:23:35.473Z,13.70
2019-04-20T01:26:04.003Z,13.70
2019-04-20T01:28:46.417Z,13.70
2019-04-20T01:31:10.065Z,13.60
2019-04-20T01:33:41.297Z,13.70
2019-04-20T01:36:21.571Z,13.60
2019-04-20T01:38:44.689Z,13.60
2019-04-20T01:40:59.123Z,13.60
2019-04-20T01:43:27.630Z,13.60
2019-04-20T01:46:01.914Z,13.60
2019-04-20T01:48:30.778Z,13.60
2019-04-20T01:51:04.769Z,13.50
2019-04-20T01:53:59.972Z,13.50
2019-04-20T01:56:27.504Z,13.50
2019-04-20T01:59:04.552Z,13.50
2019-04-20T02:01:37.368Z,13.50
2019-04-20T02:04:16.987Z,13.40
2019-04-20T02:06:47.204Z,13.40
2019-04-20T02:09:15.251Z,13.40
2019-04-20T02:11:44.684Z,13.40
2019-04-20T02:14:12.467Z,13.30
2019-04-20T02:16:45.848Z,13.30
2019-04-20T02:19:26.533Z,13.30
2019-04-20T02:21:55.379Z,13.30
2019-04-20T02:24:13.119Z,13.20
2019-04-20T02:26:42.937Z,13.30
2019-04-20T02:29:35.116Z,13.20
2019-04-20T02:32:19.836Z,13.20
2019-04-20T02:37:23.703Z,13.20
2019-04-20T02:39:57.927Z,13.20
2019-04-20T02:42:28.124Z,13.10
2019-04-20T02:44:59.427Z,13.10
2019-04-20T02:47:41.007Z,13.10
2019-04-20T02:49:56.654Z,13.10
2019-04-20T02:52:34.207Z,13.10
2019-04-20T03:02:13.322Z,13.00
2019-04-20T03:04:31.708Z,13.00
2019-04-20T03:07:09.353Z,12.90
2019-04-20T03:09:47.233Z,12.90
2019-04-20T03:12:18.759Z,12.90
2019-04-20T03:14:39.278Z,12.90
2019-04-20T03:17:21.633Z,12.90
2019-04-20T03:19:41.247Z,12.90
2019-04-20T03:22:21.353Z,12.90
2019-04-20T03:24:49.194Z,12.90
2019-04-20T03:27:17.110Z,12.80
2019-04-20T03:29:56.805Z,12.80
2019-04-20T03:33:00.096Z,12.80
2019-04-20T03:35:08.127Z,12.80
2019-04-20T03:37:30.638Z,12.80
2019-04-20T03:39:52.608Z,12.70
2019-04-20T03:42:09.348Z,12.70
2019-04-20T03:44:39.429Z,12.70
2019-04-20T03:47:12.347Z,12.70
2019-04-20T03:50:00.653Z,12.70
2019-04-20T03:52:36.260Z,12.60
2019-04-20T03:55:12.832Z,12.60
2019-04-20T03:57:51.264Z,12.50
2019-04-20T04:00:26.742Z,12.50
2019-04-20T04:05:33.996Z,12.40
2019-04-20T04:07:55.884Z,12.40
2019-04-20T04:10:29.393Z,12.30
2019-04-20T04:13:09.357Z,12.30
2019-04-20T04:15:47.898Z,12.30
2019-04-20T04:18:17.169Z,12.20
2019-04-20T04:20:49.269Z,12.20
2019-04-20T04:23:32.310Z,12.20
2019-04-20T04:26:00.717Z,12.20
2019-04-20T04:28:29.859Z,12.20
2019-04-20T04:31:05.113Z,12.10
2019-04-20T04:35:57.003Z,12.10
2019-04-20T04:38:32.712Z,12.10
2019-04-20T04:41:09.549Z,12.10
2019-04-20T04:43:35.646Z,12.10
2019-04-20T04:45:42.682Z,12.10
2019-04-20T04:48:14.720Z,12.00
2019-04-20T04:50:49.595Z,12.10
2019-04-20T04:53:25.040Z,12.00
2019-04-20T04:55:47.688Z,12.00
2019-04-20T04:58:12.804Z,12.00
2019-04-20T05:00:42.483Z,12.00
2019-04-20T05:03:30.531Z,12.00
2019-04-20T05:06:08.959Z,11.90
2019-04-20T05:08:26.171Z,11.90
2019-04-20T05:10:49.959Z,12.00
2019-04-20T05:13:19.815Z,12.00
2019-04-20T05:16:00.177Z,12.00
2019-04-20T05:18:44.811Z,12.00
2019-04-20T05:21:11.899Z,12.10
2019-04-20T05:23:35.338Z,12.10
2019-04-20T05:26:14.216Z,12.30
2019-04-20T05:28:37.105Z,12.40
2019-04-20T05:30:59.861Z,12.60
2019-04-20T05:33:42.554Z,12.90
2019-04-20T05:36:20.537Z,13.10
2019-04-20T05:38:52.152Z,13.40
2019-04-20T05:41:13.532Z,13.70
2019-04-20T05:43:45.689Z,14.10
2019-04-20T05:46:22.131Z,14.40
2019-04-20T05:48:50.528Z,14.70
2019-04-20T05:51:25.223Z,15.00
2019-04-20T05:53:50.377Z,15.30
2019-04-20T05:56:17.338Z,15.60
2019-04-20T05:58:53.563Z,16.00
2019-04-20T06:01:22.763Z,16.30
2019-04-20T06:03:50.080Z,16.60
2019-04-20T06:06:22.073Z,16.90
2019-04-20T06:08:57.068Z,17.20
2019-04-20T06:11:23.818Z,17.50
2019-04-20T06:13:48.820Z,17.70
2019-04-20T06:16:31.577Z,18.00
2019-04-20T06:19:06.813Z,18.30
2019-04-20T06:21:38.002Z,18.60
2019-04-20T06:24:10.577Z,18.90
2019-04-20T06:26:49.469Z,19.30
2019-04-20T06:29:07.022Z,19.70
2019-04-20T06:31:43.895Z,20.00
2019-04-20T06:36:49.829Z,20.80
2019-04-20T06:39:20.428Z,21.20
2019-04-20T06:44:23.169Z,21.80
2019-04-20T06:46:58.735Z,22.10
2019-04-20T06:51:55.612Z,22.80
2019-04-20T06:54:20.955Z,23.10
2019-04-20T06:57:04.315Z,23.30
2019-04-20T06:59:31.811Z,23.60
2019-04-20T07:04:47.487Z,24.10
2019-04-20T07:09:39.921Z,24.60
2019-04-20T07:11:57.069Z,24.90
2019-04-20T07:14:25.892Z,25.20
2019-04-20T07:17:34.928Z,25.40
2019-04-20T07:20:04.100Z,25.60
2019-04-20T07:22:39.399Z,25.90
2019-04-20T07:25:14.264Z,26.10
2019-04-20T07:27:45.089Z,26.30
2019-04-20T07:30:12.303Z,26.60
2019-04-20T07:32:48.515Z,26.90
2019-04-20T07:35:17.173Z,27.30
2019-04-20T07:40:17.562Z,27.80
2019-04-20T07:42:46.812Z,28.10
2019-04-20T07:45:28.307Z,28.40
2019-04-20T07:47:46.153Z,28.60
2019-04-20T07:50:07.495Z,28.90
2019-04-20T07:52:39.669Z,29.20
2019-04-20T07:57:41.950Z,29.90
2019-04-20T08:00:15.787Z,30.20
2019-04-20T08:03:11.923Z,30.50
2019-04-20T08:05:33.756Z,30.60
2019-04-20T08:08:13.092Z,30.70
2019-04-20T08:10:39.431Z,30.80
2019-04-20T08:13:17.158Z,30.80
2019-04-20T08:18:13.691Z,31.00
2019-04-20T08:20:47.526Z,31.20
2019-04-20T08:23:14.312Z,31.50
2019-04-20T08:25:36.167Z,31.70
2019-04-20T08:28:06.405Z,31.90
2019-04-20T08:31:00.399Z,32.00
2019-04-20T08:33:36.392Z,32.20
2019-04-20T08:36:10.812Z,32.40
2019-04-20T08:38:58.050Z,32.60
2019-04-20T08:41:02.617Z,32.90
2019-04-20T08:46:05.288Z,33.50
2019-04-20T08:48:40.816Z,33.80
2019-04-20T08:51:08.988Z,34.20
2019-04-20T08:53:43.154Z,34.50
2019-04-20T08:56:00.247Z,34.60
2019-04-20T08:58:18.056Z,34.80
2019-04-20T09:00:53.607Z,34.70
2019-04-20T09:03:25.366Z,34.60
2019-04-20T09:05:57.789Z,34.40
2019-04-20T09:08:24.902Z,34.40
2019-04-20T09:11:05.800Z,34.30
2019-04-20T09:13:26.935Z,34.20
2019-04-20T09:15:49.486Z,34.10
2019-04-20T09:18:36.897Z,34.00
2019-04-20T09:21:04.302Z,34.00
2019-04-20T09:23:42.400Z,34.00
2019-04-20T09:26:16.140Z,34.10
2019-04-20T09:28:41.766Z,34.10
2019-04-20T09:31:25.779Z,34.40
2019-04-20T09:33:51.440Z,34.60
2019-04-20T09:36:40.340Z,34.90
2019-04-20T09:39:11.445Z,35.20
2019-04-20T09:41:58.524Z,35.60
2019-04-20T09:44:11.682Z,36.00
2019-04-20T09:46:46.471Z,36.40
2019-04-20T09:49:20.077Z,36.60
2019-04-20T09:51:57.487Z,36.80
2019-04-20T09:54:32.584Z,36.70
2019-04-20T09:57:03.236Z,36.60
2019-04-20T09:59:28.997Z,36.50
2019-04-20T10:01:45.873Z,36.40
2019-04-20T10:04:11.077Z,36.50
2019-04-20T10:06:39.612Z,36.60
2019-04-20T10:09:09.593Z,36.70
2019-04-20T10:11:38.311Z,36.70
2019-04-20T10:14:08.238Z,36.60
2019-04-20T10:16:37.890Z,36.40
2019-04-20T10:19:07.868Z,36.20
2019-04-20T10:21:36.496Z,36.20
2019-04-20T10:24:06.218Z,36.40
2019-04-20T10:26:36.603Z,36.50
2019-04-20T10:29:06.071Z,36.70
2019-04-20T10:48:03.417Z,36.10
2019-04-20T11:04:21.142Z,37.30
2019-04-20T11:06:50.343Z,37.40
2019-04-20T11:09:18.804Z,37.50
2019-04-20T11:11:48.280Z,37.30
2019-04-20T11:14:25.779Z,37.10
2019-04-20T11:16:46.949Z,36.80
2019-04-20T11:19:15.662Z,36.80
2019-04-20T11:21:46.336Z,36.70
2019-04-20T11:24:16.271Z,36.70
2019-04-20T11:26:45.157Z,36.60
2019-04-20T11:29:16.061Z,36.40
2019-04-20T11:31:49.256Z,36.30
2019-04-20T11:34:23.548Z,36.00
2019-04-20T11:36:48.820Z,35.90
2019-04-20T11:39:16.853Z,35.70
2019-04-20T11:41:45.747Z,35.60
2019-04-20T11:44:14.276Z,35.50
2019-04-20T11:46:42.929Z,35.40
2019-04-20T11:49:11.462Z,35.20
2019-04-20T11:51:41.344Z,35.20
2019-04-20T11:54:10.455Z,35.10
2019-04-20T11:56:42.205Z,35.10
2019-04-20T11:59:09.454Z,35.10
2019-04-20T12:01:53.062Z,35.00
2019-04-20T12:04:30.293Z,34.90
2019-04-20T12:06:50.660Z,34.70
2019-04-20T12:09:19.317Z,34.40
2019-04-20T12:12:04.230Z,34.20
2019-04-20T12:14:18.829Z,33.90
2019-04-20T12:16:47.832Z,33.60
2019-04-20T12:19:16.255Z,33.20
2019-04-20T12:21:45.613Z,32.90
2019-04-20T12:24:14.587Z,32.50
2019-04-20T12:26:43.016Z,32.20
2019-04-20T12:29:11.934Z,31.90
2019-04-20T12:31:44.381Z,31.70
2019-04-20T12:34:10.618Z,31.60
2019-04-20T12:36:39.491Z,31.40
2019-04-20T12:39:10.887Z,31.40
2019-04-20T12:41:45.240Z,31.40
2019-04-20T12:44:09.932Z,31.30
2019-04-20T12:46:38.429Z,31.30
2019-04-20T12:49:07.648Z,31.20
2019-04-20T12:51:47.833Z,31.20
2019-04-20T12:54:06.761Z,31.20
2019-04-20T12:56:35.206Z,31.20
2019-04-20T12:59:03.660Z,31.30
2019-04-20T13:01:33.282Z,31.30
2019-04-20T13:04:04.492Z,31.30
2019-04-20T13:06:32.200Z,31.20
2019-04-20T13:09:02.436Z,31.20
2019-04-20T13:11:44.287Z,31.10
2019-04-20T13:14:30.628Z,31.10
2019-04-20T13:16:59.151Z,30.90
2019-04-20T13:19:29.057Z,30.80
2019-04-20T13:21:58.869Z,30.70
2019-04-20T13:24:27.426Z,30.60
2019-04-20T13:26:55.827Z,30.60
2019-04-20T13:29:24.843Z,30.50
2019-04-20T13:31:54.972Z,30.50
2019-04-20T13:54:47.477Z,30.30
2019-04-20T14:00:06.179Z,30.30
2019-04-20T14:02:51.197Z,30.30
2019-04-20T14:05:38.197Z,30.30
2019-04-20T14:08:11.594Z,30.30
2019-04-20T14:10:41.769Z,30.10
2019-04-20T14:13:15.720Z,30.10
2019-04-20T14:15:40.955Z,29.90
2019-04-20T14:18:17.405Z,29.90
2019-04-20T14:20:47.931Z,29.80
2019-04-20T14:23:17.067Z,29.80
2019-04-20T14:25:46.955Z,29.70
2019-04-20T14:28:15.895Z,29.70
2019-04-20T14:30:45.936Z,29.70
2019-04-20T14:33:18.898Z,29.60
2019-04-20T14:35:52.705Z,29.60
2019-04-20T14:38:22.279Z,29.50
2019-04-20T14:40:52.355Z,29.40
2019-04-20T14:43:32.907Z,29.30
2019-04-20T14:46:20.983Z,29.30
2019-04-20T14:48:49.503Z,29.20
2019-04-20T14:51:21.467Z,29.20
2019-04-20T14:53:55.757Z,29.20
2019-04-20T14:56:25.328Z,29.20
2019-04-20T14:59:05.281Z,29.10
2019-04-20T15:01:36.995Z,29.10
2019-04-20T15:04:14.704Z,29.10
2019-04-20T15:06:42.472Z,29.00
2019-04-20T15:09:12.857Z,29.00
2019-04-20T15:11:46.583Z,28.90
2019-04-20T15:14:26.795Z,28.90
2019-04-20T15:20:49.246Z,28.80
2019-04-20T15:23:21.606Z,28.70
2019-04-20T15:26:00.752Z,28.70
2019-04-20T15:31:54.204Z,28.70
2019-04-20T15:40:51.084Z,28.60
2019-04-20T15:49:37.787Z,28.50
2019-04-20T15:52:08.080Z,28.50
2019-04-20T15:54:38.043Z,28.50
2019-04-20T15:57:14.179Z,28.50
2019-04-20T15:59:38.251Z,28.50
2019-04-20T16:02:11.419Z,28.50
2019-04-20T16:04:52.460Z,28.40
2019-04-20T16:07:25.562Z,28.40
2019-04-20T16:09:56.885Z,28.30
2019-04-20T16:12:25.062Z,28.20
2019-04-20T16:14:59.724Z,28.10
2019-04-20T16:17:38.365Z,28.10
2019-04-20T16:20:10.294Z,28.00
2019-04-20T16:22:36.681Z,27.80
2019-04-20T16:25:15.337Z,27.80
2019-04-20T16:27:45.600Z,27.70
2019-04-20T16:30:15.922Z,27.70
2019-04-20T16:33:14.632Z,27.60
2019-04-20T16:35:24.573Z,27.50
2019-04-20T16:38:00.402Z,27.50
2019-04-20T16:40:29.466Z,27.40
2019-04-20T16:43:03.749Z,27.40
2019-04-20T16:45:35.081Z,27.30
2019-04-20T16:48:06.652Z,27.30
2019-04-20T16:50:37.920Z,27.20
2019-04-20T16:53:06.601Z,27.10
2019-04-20T16:55:37.080Z,27.00
2019-04-20T16:58:10.078Z,27.00
2019-04-20T17:00:41.401Z,26.90
2019-04-20T17:03:11.149Z,26.80
2019-04-20T17:05:41.410Z,26.70
2019-04-20T17:08:20.986Z,26.70
2019-04-20T17:10:49.407Z,26.50
2019-04-20T17:13:28.431Z,26.50
2019-04-20T17:15:48.236Z,26.40
2019-04-20T17:18:16.656Z,26.30
2019-04-20T17:20:46.346Z,26.30
2019-04-20T17:23:15.053Z,26.20
2019-04-20T17:25:43.879Z,26.10
2019-04-20T17:28:26.774Z,26.10
2019-04-20T17:30:57.027Z,26.00
2019-04-20T17:33:30.750Z,26.00
2019-04-20T17:36:08.425Z,25.90
2019-04-20T17:38:36.814Z,25.80
2019-04-20T17:41:13.779Z,25.80
2019-04-20T17:43:42.496Z,25.80
2019-04-20T17:46:10.348Z,25.70
2019-04-20T17:48:39.988Z,25.70
2019-04-20T17:51:23.787Z,25.60
2019-04-20T17:53:41.663Z,25.50
2019-04-20T17:56:04.047Z,25.50
2019-04-20T17:58:34.865Z,25.40
2019-04-20T18:01:08.682Z,25.40
2019-04-20T18:06:27.723Z,25.20
2019-04-20T18:08:56.124Z,25.20
2019-04-20T18:11:13.321Z,25.10
2019-04-20T18:13:37.822Z,25.00
2019-04-20T18:16:29.559Z,25.00
2019-04-20T18:18:58.536Z,24.90
2019-04-20T18:21:21.225Z,24.90
2019-04-20T18:23:51.833Z,24.80
2019-04-20T18:26:38.134Z,24.70
2019-04-20T18:29:14.950Z,24.60
2019-04-20T18:31:41.683Z,24.60
2019-04-20T18:34:14.985Z,24.50
2019-04-20T18:36:44.025Z,24.40
2019-04-20T18:39:13.735Z,24.30
2019-04-20T18:41:48.320Z,24.20
2019-04-20T18:44:12.854Z,24.20
2019-04-20T18:47:06.956Z,24.10
2019-04-20T18:49:27.151Z,24.00
2019-04-20T18:51:41.786Z,23.90
2019-04-20T18:54:17.414Z,23.80
2019-04-20T18:56:45.881Z,23.70
2019-04-20T18:59:11.481Z,23.60
2019-04-20T19:01:43.167Z,23.50
2019-04-20T19:04:10.230Z,23.50
2019-04-20T19:06:38.695Z,23.40
2019-04-20T19:09:09.466Z,23.30
2019-04-20T19:11:43.804Z,23.30
2019-04-20T19:14:34.514Z,23.10
2019-04-20T19:17:08.728Z,23.10
2019-04-20T19:19:38.692Z,23.00
2019-04-20T19:21:58.694Z,23.00
2019-04-20T19:24:29.716Z,22.90
2019-04-20T19:27:02.848Z,22.80
2019-04-20T19:29:34.566Z,22.80
2019-04-20T19:32:17.950Z,22.70
2019-04-20T19:34:43.241Z,22.60
2019-04-20T19:37:10.530Z,22.60
2019-04-20T19:39:46.273Z,22.50
2019-04-20T19:42:13.136Z,22.50
2019-04-20T19:44:45.925Z,22.40
2019-04-20T19:47:22.805Z,22.30
2019-04-20T19:49:41.915Z,22.30
2019-04-20T19:54:50.433Z,22.20
2019-04-20T19:57:16.220Z,22.10
2019-04-20T19:59:38.704Z,22.10
2019-04-20T20:02:00.780Z,22.00
2019-04-20T20:04:32.230Z,22.00
2019-04-20T20:07:03.985Z,21.90
2019-04-20T20:09:32.426Z,21.90
2019-04-20T20:12:04.979Z,21.80
2019-04-20T20:14:36.773Z,21.80
2019-04-20T20:17:19.771Z,21.70
2019-04-20T20:19:54.414Z,21.70
2019-04-20T20:22:12.750Z,21.60
2019-04-20T20:24:31.390Z,21.60
2019-04-20T20:27:04.200Z,21.50
2019-04-20T20:29:40.281Z,21.50
2019-04-20T20:32:09.991Z,21.40
2019-04-20T20:34:36.050Z,21.40
2019-04-20T20:37:07.374Z,21.30
2019-04-20T20:39:34.408Z,21.30
2019-04-20T20:42:15.200Z,21.20
2019-04-20T20:44:42.804Z,21.20
2019-04-20T20:47:21.912Z,21.10
2019-04-20T20:49:56.858Z,21.10
2019-04-20T20:52:26.202Z,21.10
2019-04-20T20:54:43.573Z,21.10
2019-04-20T20:57:08.942Z,21.00
2019-04-20T20:59:42.700Z,21.00
2019-04-20T21:02:08.844Z,21.00
2019-04-20T21:04:33.484Z,20.90
2019-04-20T21:07:02.719Z,20.90
2019-04-20T21:09:31.491Z,20.90
2019-04-20T21:12:04.803Z,20.80
2019-04-20T21:14:33.561Z,20.80
2019-04-20T21:17:08.209Z,20.80
2019-04-20T21:19:50.238Z,20.70
2019-04-20T21:22:08.576Z,20.70
2019-04-20T21:24:33.749Z,20.60
2019-04-20T21:27:07.908Z,20.60
2019-04-20T21:29:37.833Z,20.60
2019-04-20T21:32:08.842Z,20.50
2019-04-20T21:34:33.137Z,20.50
2019-04-20T21:37:11.684Z,20.40
2019-04-20T21:39:43.154Z,20.40
2019-04-20T21:42:09.700Z,20.30
2019-04-20T21:44:37.449Z,20.30
2019-04-20T21:47:03.415Z,20.20
2019-04-20T21:49:45.931Z,20.20
2019-04-20T21:52:06.717Z,20.10
2019-04-20T21:54:34.052Z,20.10
2019-04-20T21:57:05.838Z,20.00
2019-04-20T21:59:40.964Z,20.00
2019-04-20T22:02:11.601Z,19.90
2019-04-20T22:04:35.410Z,19.90
2019-04-20T22:07:05.069Z,19.80
2019-04-20T22:09:40.335Z,19.70
2019-04-20T22:12:05.597Z,19.60
2019-04-20T22:14:35.512Z,19.50
2019-04-20T22:17:05.480Z,19.40
2019-04-20T22:19:41.875Z,19.30
2019-04-20T22:22:16.413Z,19.20
2019-04-20T22:24:50.588Z,19.10
2019-04-20T22:27:13.074Z,19.00
2019-04-20T22:29:34.694Z,18.90
2019-04-20T22:32:09.027Z,18.70
2019-04-20T22:34:33.693Z,18.60
2019-04-20T22:37:04.355Z,18.60
2019-04-20T22:39:39.750Z,18.40
2019-04-20T22:42:09.030Z,18.30
2019-04-20T22:44:36.339Z,18.20
2019-04-20T22:47:12.396Z,18.20
2019-04-20T22:49:49.973Z,18.10
2019-04-20T22:52:23.312Z,18.00
2019-04-20T22:54:52.182Z,17.90
2019-04-20T22:57:19.300Z,17.90
2019-04-20T22:59:45.888Z,17.80
2019-04-20T23:02:09.434Z,17.70
2019-04-20T23:04:38.972Z,17.60
2019-04-20T23:07:08.555Z,17.50
2019-04-20T23:09:43.833Z,17.40
2019-04-20T23:12:12.258Z,17.40
2019-04-20T23:14:38.378Z,17.30
2019-04-20T23:17:08.174Z,17.20
2019-04-20T23:19:45.732Z,17.10
2019-04-20T23:22:10.528Z,17.10
2019-04-20T23:24:37.385Z,17.00
2019-04-20T23:27:13.722Z,16.90
2019-04-20T23:29:39.526Z,16.90
2019-04-20T23:32:11.599Z,16.80
2019-04-20T23:34:38.953Z,16.70
2019-04-20T23:37:16.258Z,16.60
2019-04-20T23:39:41.570Z,16.60
2019-04-20T23:42:11.197Z,16.50
2019-04-20T23:44:52.999Z,16.40
2019-04-20T23:47:24.025Z,16.40
2019-04-20T23:50:12.279Z,16.30
2019-04-20T23:52:49.039Z,16.30
2019-04-20T23:55:02.081Z,16.20
2019-04-20T23:57:26.052Z,16.10
2019-04-20T23:59:55.030Z,16.10
